Nederlandse vliegveldverwachtingen (TAF)

Luchtvaartmeteorologische informatie voor operationeel gebruik en vluchtvoorbereiding is beschikbaar op www.luchtvaartmeteo.nl.

ZCZC
FT201700 EHLE     LELYSTAD/LELYSTAD   NLD   -3 m.
TAF EHLE 201712Z 2018/2124 23018G28KT 9999 SCT025
    BECMG 2018/2020 21012KT
    BECMG 2021/2024 15006KT 7000 RA BKN018
    BECMG 2101/2104 21020G30KT
    TEMPO 2101/2106 VRB25G38KT 4000 SHRA BKN010 SCT020CB
    BECMG 2104/2106 32022G35KT 9999 NSW BKN025
    TEMPO 2105/2115 4000 SHRA SCT025CB OVC030
    BECMG 2109/2112 30018G30KT FEW035
    PROB40 TEMPO 2115/2120 7000 -SHRA FEW025CB SCT035
    BECMG 2115/2118 29015G25KT
    BECMG 2118/2121 29014KT
    BECMG 2121/2124 26012KT=

ZCZC
FT201700 EHAM     AMSTERDAM/SCHIPHOL   NLD   -3 m.
TAF EHAM 201712Z 2018/2124 23020G30KT 9999 SCT025
    BECMG 2018/2020 21012KT
    BECMG 2021/2024 15008KT 7000 RA BKN018
    BECMG 2100/2103 21020G30KT
    TEMPO 2101/2105 VRB27G40KT 4000 SHRA BKN014 SCT020CB
    BECMG 2103/2105 32022G35KT 9999 NSW BKN025
    TEMPO 2105/2114 4000 SHRA SCT025CB OVC030
    BECMG 2109/2112 30018G30KT FEW035
    PROB40 TEMPO 2114/2120 7000 -SHRA FEW025CB SCT035
    BECMG 2115/2118 29015G25KT
    BECMG 2118/2121 29014KT
    BECMG 2121/2124 26012KT=

ZCZC
FT201700 EHRD     ROTTERDAM/THE HAGUE AIRPORT   NLD   -5 m.
TAF EHRD 201712Z 2018/2124 23015KT 9999 SCT025
    BECMG 2018/2020 20012KT
    BECMG 2021/2024 15008KT 7000 RA BKN018
    BECMG 2100/2103 21020G33KT
    TEMPO 2101/2105 VRB27G40KT 4000 SHRA BKN014 SCT020CB
    BECMG 2103/2105 32022G35KT 9999 NSW BKN025
    TEMPO 2105/2114 30028G40KT 4000 SHRA SCT025CB OVC030
    BECMG 2109/2112 30018G30KT FEW035
    PROB40 TEMPO 2114/2120 7000 -SHRA FEW025CB SCT035
    BECMG 2115/2118 29015G25KT
    BECMG 2118/2121 29014KT
    BECMG 2121/2124 26012KT=

ZCZC
FT201700 EHGG     GRONINGEN/EELDE   NLD   5 m.
TAF EHGG 201716Z 2018/2124 22015KT 9999 SCT025
    PROB40 TEMPO 2018/2124 23018G28KT 4000 SHRA TSRA SCT018CB
    BECMG 2023/2101 06005KT 7000 RA
    TEMPO 2100/2106 3000 +RA SHRA BKN014 SCT018CB
    BECMG 2104/2106 28016G26KT 9999 NSW SCT030
    TEMPO 2106/2124 5000 SHRA SHRAGS SCT025CB
    BECMG 2119/2121 25010KT=

ZCZC
FT201700 EHBK     MAASTRICHT/MAASTRICHT-AACHEN   NLD   114 m.
TAF EHBK 201718Z 2018/2124 20012KT 9999 SCT025
    PROB40 TEMPO 2018/2024 22015G25KT 4000 SHRA SCT018CB
    BECMG 2023/2102 23022G32KT
    TEMPO 2100/2106 26033G46KT 2000 SHRA TSRA SCT015CB
    BECMG 2105/2107 26018G28KT
    PROB40 TEMPO 2106/2114 28020G30KT 4000 SHRA SHRAGS SCT025CB
    PROB30 TEMPO 2114/2119 27012G22KT 6000 SHRA
    BECMG 2116/2118 24007KT=

ZCZC
FT201700 EHEH     EINDHOVEN/EINDHOVEN   NLD   22 m.
TAF EHEH 201742Z 2018/2124 20012G22KT 9999 SCT020 BKN035
    TEMPO 2018/2019 23015G30KT 4000 SHRA FEW015 SCT022CB
    PROB30 TEMPO 2018/2019 2500 TSRA SCT015 SCT020CB
    BECMG 2018/2021 17008KT
    TEMPO 2021/2107 3500 RA SHRA SCT010 BKN016 SCT020CB
    OVC022
    PROB40 TEMPO 2022/2105 VRB20G42KT 2000 TSRA +RA SCT008
    BKN014 SCT018CB OVC020
    BECMG 2023/2101 21020G35KT
    BECMG 2103/2105 26016G30KT
    TEMPO 2107/2121 4500 SHRA SCT018 SCT025CB BKN035
    PROB30 TEMPO 2109/2116 28020G35KT 2000 TSRA SCT015 SCT020CB
    BKN025
    BECMG 2115/2118 27007KT=

ZCZC
FC202100 EHKD     DE KOOY/DE KOOY   NLD   1 m.
TAF EHKD 202100Z NIL=

ZCZC
FC202100 EHGR     GILZE-RIJEN/GILZE-RIJEN   NLD   14 m.
TAF EHGR 202100Z NIL=

ZCZC
FC202100 EHLW     LEEUWARDEN/LEEUWARDEN   NLD   1 m.
TAF EHLW 202036Z 2021/2109 23012KT 9999 SCT020 BKN030
    BECMG 2022/2024 18007KT
    BECMG 2023/2102 12003KT BKN018 OVC025
    TEMPO 2023/2105 3500 RA SHRA SCT010 BKN016 SCT020CB
    OVC022
    PROB40 TEMPO 2023/2105 VRB15G35KT 2000 TSRA +RA SCT008
    BKN014 SCT018CB OVC020
    BECMG 2103/2105 31018G32KT
    TEMPO 2105/2109 4500 -SHRA SCT018 SCT020CB BKN035=

ZCZC
FC202100 EHVK     VOLKEL/VOLKEL   NLD   21 m.
TAF EHVK 202018Z 2021/2109 18010KT 9999 SCT020 BKN035
    TEMPO 2021/2107 3500 RA SHRA SCT010 BKN016 SCT020CB
    OVC022
    PROB40 TEMPO 2021/2105 VRB20G42KT 2000 TSRA +RA SCT008
    BKN014 SCT018CB OVC020
    BECMG 2100/2102 21020G32KT
    BECMG 2103/2105 26015G30KT
    PROB30 TEMPO 2103/2106 29025G45KT
    TEMPO 2107/2109 4500 -SHRA SCT018 SCT020CB BKN035=

ZCZC
FC202100 EHWO     WOENSDRECHT/WOENSDRECHT   NLD   19 m.
TAF EHWO 202100Z NIL=

20/10/2021 23.15 uur LT